Time;durP1;ratioP1;P1;durP2;ratioP2;P2;SDS_P1;SDS_P2;PMS_P1;PMS_P2;Temp;Humidity;BMP_temperature;BMP_pressure;BME280_temperature;BME280_humidity;BME280_pressure;Samples;Min_cycle;Max_cycle;Signal;HPM_P1;HPM_P2
2022/04/21 00:00:07;;;;;;;59.53;38.42;;;;;;;7.35;91.66;98688.77;1791295;79;21017;-37
2022/04/21 00:02:33;;;;;;;56.30;36.63;;;;;;;7.37;91.45;98685.61;1792390;79;21494;-37
2022/04/21 00:04:59;;;;;;;63.55;37.85;;;;;;;7.32;92.19;98686.78;1792292;79;21028;-38
2022/04/21 00:07:26;;;;;;;58.68;37.30;;;;;;;7.29;93.09;98683.40;1792448;80;20958;-37
2022/04/21 00:09:52;;;;;;;57.15;38.38;;;;;;;7.31;92.85;98684.60;1792362;80;21036;-35
2022/04/21 00:12:18;;;;;;;59.18;37.75;;;;;;;7.33;92.46;98683.22;1792313;79;20978;-39
2022/04/21 00:14:44;;;;;;;58.23;37.33;;;;;;;7.30;92.51;98683.77;1792503;79;21118;-38
2022/04/21 00:17:09;;;;;;;62.30;39.73;;;;;;;7.32;92.27;98682.38;1792352;80;21578;-38
2022/04/21 00:19:37;;;;;;;68.55;41.02;;;;;;;7.29;92.38;98686.02;1792363;80;21493;-38
2022/04/21 00:24:48;;;;;;;65.42;41.08;;;;;;;7.31;92.46;98687.22;1792370;79;21419;-39
2022/04/21 00:27:14;;;;;;;68.00;40.78;;;;;;;7.31;92.16;98688.53;1792429;80;21089;-37
2022/04/21 00:29:41;;;;;;;67.10;41.50;;;;;;;7.30;92.62;98688.16;1792351;80;21052;-38
2022/04/21 00:32:07;;;;;;;68.78;42.50;;;;;;;7.30;92.88;98685.55;1792590;79;21519;-37
2022/04/21 00:34:33;;;;;;;65.87;39.58;;;;;;;7.28;92.29;98686.92;1792330;80;20994;-38
2022/04/21 00:36:59;;;;;;;62.33;40.67;;;;;;;7.27;92.41;98689.14;1792312;80;21037;-39
2022/04/21 00:39:26;;;;;;;66.12;40.90;;;;;;;7.25;93.00;98689.69;1786125;80;21026;-38
2022/04/21 00:41:59;;;;;;;71.80;40.17;;;;;;;7.27;92.74;98685.22;1784059;80;20986;-37
2022/04/21 00:44:28;;;;;;;66.37;39.65;;;;;;;7.29;92.35;98684.71;1783740;80;20970;-38
2022/04/21 00:46:56;;;;;;;63.35;39.65;;;;;;;7.26;92.58;98675.70;1783278;79;21024;-40
2022/04/21 00:49:23;;;;;;;64.90;39.88;;;;;;;7.26;92.77;98679.62;1783726;80;21560;-39
2022/04/21 00:51:51;;;;;;;68.45;40.50;;;;;;;7.27;92.71;98682.61;1762234;80;20994;-38
2022/04/21 00:54:17;;;;;;;63.80;39.38;;;;;;;7.29;93.21;98682.53;1783715;80;21498;-37
2022/04/21 00:56:44;;;;;;;66.35;38.88;;;;;;;7.30;92.43;98687.69;1783855;80;20986;-37
2022/04/21 00:59:12;;;;;;;63.30;39.30;;;;;;;7.27;93.15;98685.22;1783851;80;20962;-37
2022/04/21 01:04:25;;;;;;;;;;;;;;;7.30;93.41;98675.92;1786414;80;20962;-38
2022/04/21 01:06:53;;;;;;;66.47;39.13;;;;;;;7.31;93.22;98684.60;1783755;80;20132;-38
2022/04/21 01:09:19;;;;;;;69.95;38.35;;;;;;;7.31;93.00;98678.06;1783120;80;21830;-38
2022/04/21 01:11:47;;;;;;;67.85;38.58;;;;;;;7.27;93.49;98678.69;1783685;80;21343;-38
2022/04/21 01:14:14;;;;;;;60.12;36.15;;;;;;;7.32;93.32;98681.08;1783937;80;20985;-38
2022/04/21 01:16:40;;;;;;;;;;;;;;;7.32;93.07;98688.92;1786412;80;20978;-38
2022/04/21 01:19:06;;;;;;;61.70;37.30;;;;;;;7.29;93.52;98684.71;1783687;80;20104;-38
2022/04/21 01:21:32;;;;;;;67.00;39.63;;;;;;;7.32;93.12;98682.38;1783765;80;20990;-37
2022/04/21 01:23:58;;;;;;;67.75;38.45;;;;;;;7.29;92.99;98679.92;1783431;80;21013;-38
2022/04/21 01:26:28;;;;;;;71.40;39.15;;;;;;;7.32;92.93;98681.55;1783665;79;21037;-38
2022/04/21 01:28:55;;;;;;;68.12;39.85;;;;;;;7.28;93.01;98682.17;1784002;80;20981;-37
2022/04/21 01:31:22;;;;;;;66.97;39.15;;;;;;;7.26;92.52;98682.24;1783886;80;20989;-41
2022/04/21 01:33:48;;;;;;;;;;;;;;;7.24;93.52;98682.79;1785506;80;21025;-37
2022/04/21 01:36:14;;;;;;;73.42;39.13;;;;;;;7.23;93.65;98681.08;1783660;80;20112;-37
2022/04/21 01:41:24;;;;;;;69.75;38.95;;;;;;;7.28;93.07;98683.00;1792284;79;21030;-38
2022/04/21 01:43:49;;;;;;;62.40;37.73;;;;;;;7.29;93.09;98682.09;1792267;80;21032;-39
2022/04/21 01:46:15;;;;;;;66.80;38.78;;;;;;;7.30;93.19;98685.55;1792279;80;21017;-38
2022/04/21 01:48:41;;;;;;;60.92;37.60;;;;;;;7.25;93.76;98683.16;1792252;79;20990;-38
2022/04/21 01:51:07;;;;;;;75.25;40.80;;;;;;;7.24;93.69;98677.56;1792398;79;21001;-37
2022/04/21 01:53:33;;;;;;;79.15;39.98;;;;;;;7.25;93.90;98684.46;1792257;79;20986;-37
2022/04/21 01:55:58;;;;;;;76.05;41.42;;;;;;;7.26;94.28;98682.24;1792245;80;20955;-37
2022/04/21 01:58:24;;;;;;;74.12;40.12;;;;;;;7.27;94.61;98686.53;1792254;79;20981;-38
2022/04/21 02:00:51;;;;;;;73.83;40.05;;;;;;;7.28;94.75;98683.00;1792382;80;21032;-37
2022/04/21 02:03:17;;;;;;;75.05;41.20;;;;;;;7.30;94.35;98687.69;1792418;79;21448;-37
2022/04/21 02:05:42;;;;;;;74.37;40.75;;;;;;;7.30;94.21;98691.61;1792286;80;20978;-38
2022/04/21 02:08:08;;;;;;;82.22;42.98;;;;;;;7.29;94.30;98693.00;1792236;79;20976;-37
2022/04/21 02:10:34;;;;;;;78.87;40.38;;;;;;;7.28;94.31;98692.63;1792270;80;20993;-38
2022/04/21 02:13:00;;;;;;;73.55;39.88;;;;;;;7.33;93.84;98693.25;1792263;79;21494;-38
2022/04/21 02:15:27;;;;;;;73.22;39.98;;;;;;;7.35;93.29;98694.01;1792237;79;20994;-38
2022/04/21 02:17:53;;;;;;;81.28;41.20;;;;;;;7.30;93.71;98692.92;1792281;79;20980;-38
2022/04/21 02:20:20;;;;;;;74.65;42.15;;;;;;;7.28;93.59;98683.00;1792420;79;21013;-38
2022/04/21 02:22:47;;;;;;;84.17;43.35;;;;;;;7.25;93.93;98680.54;1792601;80;20985;-38
2022/04/21 02:25:15;;;;;;;79.67;41.75;;;;;;;7.29;93.01;98683.40;1792456;79;21412;-39
2022/04/21 02:27:45;;;;;;;86.35;42.95;;;;;;;7.29;92.81;98686.02;1792245;80;20973;-40
2022/04/21 02:30:13;;;;;;;76.67;40.92;;;;;;;7.26;93.94;98683.55;1792179;80;21165;-37
2022/04/21 02:32:40;;;;;;;76.55;43.08;;;;;;;7.28;93.54;98683.00;1764071;80;20978;-37
2022/04/21 02:35:07;;;;;;;81.37;42.58;;;;;;;7.31;93.40;98683.30;1792312;79;20994;-37
2022/04/21 02:37:37;;;;;;;;;;;;;;;7.26;93.84;98676.17;1794901;80;20981;-38
2022/04/21 02:40:05;;;;;;;78.75;41.68;;;;;;;7.28;93.05;98676.94;1796112;80;20111;-37
2022/04/21 02:42:31;;;;;;;76.97;40.60;;;;;;;7.22;93.63;98675.48;1698166;80;21205;-39
2022/04/21 02:44:58;;;;;;;84.50;43.48;;;;;;;7.18;93.47;98671.31;1660050;85;21108;-39
2022/04/21 02:47:24;;;;;;;74.00;40.53;;;;;;;7.18;93.85;98677.85;1661559;85;20998;-40
2022/04/21 02:49:51;;;;;;;86.32;42.03;;;;;;;7.15;94.31;98675.42;1661297;86;21506;-39
2022/04/21 02:52:18;;;;;;;76.50;40.67;;;;;;;7.15;94.27;98679.34;1661425;86;21054;-39
2022/04/21 02:57:30;;;;;;;77.65;42.35;;;;;;;7.21;93.79;98672.95;1661342;86;21046;-39
2022/04/21 02:59:59;;;;;;;82.35;43.13;;;;;;;7.27;94.23;98670.84;1661342;85;21542;-37
2022/04/21 03:02:25;;;;;;;81.35;43.33;;;;;;;7.26;94.61;98674.40;1661315;86;21483;-36
2022/04/21 03:04:52;;;;;;;81.42;43.35;;;;;;;7.22;94.47;98672.88;1661375;86;21002;-38
2022/04/21 03:07:23;;;;;;;78.20;41.40;;;;;;;7.24;93.65;98672.77;1661580;85;21009;-38
2022/04/21 03:09:49;;;;;;;81.30;44.23;;;;;;;7.14;94.38;98675.02;1660864;86;21286;-36
2022/04/21 03:12:15;;;;;;;80.67;41.92;;;;;;;7.15;95.01;98670.62;1661401;85;21017;-35
2022/04/21 03:14:42;;;;;;;84.00;42.78;;;;;;;7.12;94.90;98670.33;1661291;85;20990;-35
2022/04/21 03:17:09;;;;;;;79.90;43.28;;;;;;;7.07;95.55;98669.25;1661342;86;21487;-39
2022/04/21 03:19:36;;;;;;;;;;;;;;;7.09;95.34;98670.48;1663841;85;21041;-37
2022/04/21 03:24:47;;;;;;;74.50;40.63;;;;;;;7.07;95.97;98671.02;1661466;86;21002;-37
2022/04/21 03:27:13;;;;;;;82.57;42.35;;;;;;;7.04;96.08;98669.42;1661275;86;21014;-36
2022/04/21 03:29:39;;;;;;;72.90;41.40;;;;;;;7.06;95.23;98665.43;1661253;85;21010;-35
2022/04/21 03:32:11;;;;;;;84.75;42.03;;;;;;;7.11;95.32;98666.02;1661283;86;20982;-36
2022/04/21 03:34:43;;;;;;;77.67;40.23;;;;;;;7.08;94.89;98664.89;1661316;86;21003;-38
2022/04/21 03:37:13;;;;;;;84.32;43.35;;;;;;;7.08;95.02;98667.50;1661116;85;21014;-36
2022/04/21 03:39:40;;;;;;;82.65;43.00;;;;;;;7.06;95.00;98665.43;1661321;85;21511;-39
2022/04/21 03:42:08;;;;;;;85.07;43.73;;;;;;;7.07;95.16;98669.25;1661168;85;21041;-36
2022/04/21 03:44:38;;;;;;;83.40;42.50;;;;;;;7.14;94.80;98668.95;1661288;85;20994;-38
2022/04/21 03:47:04;;;;;;;84.30;42.65;;;;;;;7.12;94.91;98669.03;1660590;86;20994;-37
2022/04/21 03:49:30;;;;;;;79.77;40.85;;;;;;;7.13;94.21;98672.48;1661258;85;21058;-36
2022/04/21 03:51:56;;;;;;;81.45;41.88;;;;;;;7.15;94.35;98666.27;1661220;85;21559;-37
2022/04/21 03:54:23;;;;;;;81.32;41.65;;;;;;;7.14;95.23;98671.09;1661147;86;21483;-38
2022/04/21 03:56:50;;;;;;;81.08;42.10;;;;;;;7.17;95.41;98679.23;1661262;85;21026;-39
2022/04/21 03:59:18;;;;;;;85.32;43.40;;;;;;;7.16;95.67;98671.86;1661293;86;21022;-38
2022/04/21 04:01:44;;;;;;;78.45;40.30;;;;;;;7.21;95.19;98671.17;1661514;86;20987;-38
2022/04/21 04:04:11;;;;;;;78.47;40.55;;;;;;;7.18;95.81;98670.48;1661190;86;21014;-36
2022/04/21 04:12:08;;;;;;;76.75;39.85;;;;;;;7.09;95.75;98667.87;1661220;85;20997;-37
2022/04/21 04:14:33;;;;;;;73.28;39.18;;;;;;;7.06;95.99;98669.35;1636612;86;21514;-39
2022/04/21 04:16:59;;;;;;;68.28;38.02;;;;;;;7.09;96.08;98677.02;1661144;86;20982;-37
2022/04/21 04:19:25;;;;;;;77.95;40.00;;;;;;;7.11;95.30;98673.86;1661116;85;21042;-41
2022/04/21 04:21:51;;;;;;;81.60;39.75;;;;;;;7.10;95.61;98673.49;1661228;85;21001;-38
2022/04/21 04:24:17;;;;;;;85.50;40.73;;;;;;;7.04;97.08;98677.70;1661152;86;21030;-37
2022/04/21 04:26:43;;;;;;;72.90;39.27;;;;;;;7.10;96.85;98682.17;1661206;85;21071;-39
2022/04/21 04:29:09;;;;;;;78.37;41.02;;;;;;;7.04;96.97;98680.32;1661180;85;21512;-41
2022/04/21 04:31:36;;;;;;;80.20;40.28;;;;;;;7.05;96.11;98683.33;1661189;86;21526;-38
2022/04/21 04:34:02;;;;;;;81.82;42.30;;;;;;;7.10;95.42;98675.64;1661170;85;21033;-40
2022/04/21 04:36:28;;;;;;;83.17;41.45;;;;;;;7.05;96.42;98678.10;1661405;85;21050;-37
2022/04/21 04:38:54;;;;;;;87.17;41.55;;;;;;;7.07;96.14;98675.78;1661124;85;21026;-37
2022/04/21 04:44:05;;;;;;;84.30;44.45;;;;;;;7.12;96.36;98674.26;1661119;86;21067;-36
2022/04/21 04:46:40;;;;;;;100.78;43.50;;;;;;;7.15;96.63;98672.80;1661391;85;21515;-37
2022/04/21 04:49:09;;;;;;;91.75;41.53;;;;;;;7.13;96.40;98669.42;1661240;86;21166;-37
2022/04/21 04:51:40;;;;;;;89.95;43.10;;;;;;;7.21;96.69;98667.72;1661119;86;21017;-37
2022/04/21 04:54:08;;;;;;;86.63;44.48;;;;;;;7.17;95.66;98668.33;1660997;85;21191;-36
2022/04/21 04:56:35;;;;;;;88.47;42.17;;;;;;;7.19;95.33;98669.09;1661056;86;21042;-37
2022/04/21 04:59:02;;;;;;;84.58;41.30;;;;;;;7.19;95.73;98671.71;1661261;85;21045;-37
2022/04/21 05:01:34;;;;;;;86.90;40.98;;;;;;;7.08;96.50;98680.58;1661177;85;21494;-38
2022/04/21 05:04:06;;;;;;;88.40;44.18;;;;;;;6.97;98.05;98682.42;1661131;85;21049;-36
2022/04/21 05:06:54;;;;;;;97.25;43.60;;;;;;;7.06;98.08;98682.42;1660474;85;21066;-36
2022/04/21 05:09:22;;;;;;;85.90;42.85;;;;;;;7.12;97.21;98686.02;1661118;86;21507;-37
2022/04/21 05:11:55;;;;;;;88.60;43.60;;;;;;;7.10;98.32;98685.26;1661109;85;21049;-35
2022/04/21 05:14:22;;;;;;;85.65;42.23;;;;;;;7.16;98.22;98686.71;1661214;85;21006;-38
2022/04/21 05:16:49;;;;;;;82.15;42.00;;;;;;;7.17;96.88;98690.56;1661212;86;21009;-39
2022/04/21 05:19:19;;;;;;;71.25;36.83;;;;;;;7.20;97.02;98692.16;1661274;86;21507;-38
2022/04/21 05:21:46;;;;;;;73.28;34.55;;;;;;;7.20;97.55;98694.78;1661225;86;21022;-38
2022/04/21 05:24:13;;;;;;;;;;;;;;;7.16;97.89;98697.17;1663580;85;21559;-36
2022/04/21 05:26:40;;;;;;;64.37;33.50;;;;;;;7.04;98.28;98690.34;1661564;85;20105;-37
2022/04/21 05:31:56;;;;;;;59.50;30.65;;;;;;;7.11;98.48;98693.47;1661103;86;21005;-39
2022/04/21 05:34:25;;;;;;;57.58;30.25;;;;;;;7.11;98.44;98698.70;1659667;86;20990;-38
2022/04/21 05:36:52;;;;;;;59.73;32.67;;;;;;;7.00;99.21;98697.93;1660935;86;21021;-39
2022/04/21 05:39:20;;;;;;;60.63;29.40;;;;;;;6.94;99.85;98698.25;1661208;86;21531;-38
2022/04/21 05:41:47;;;;;;;66.65;32.08;;;;;;;7.00;100.00;98694.48;1661219;85;21014;-39
2022/04/21 05:44:14;;;;;;;56.37;31.40;;;;;;;6.97;100.00;98689.39;1678649;85;21052;-36
2022/04/21 05:46:41;;;;;;;62.58;32.50;;;;;;;7.04;100.00;98695.56;1678752;85;21481;-37
2022/04/21 05:49:07;;;;;;;59.35;30.62;;;;;;;7.06;100.00;98693.72;1678584;84;20993;-37
2022/04/21 05:51:34;;;;;;;54.70;31.73;;;;;;;7.12;100.00;98692.56;1678760;85;21003;-39
2022/04/21 05:54:04;;;;;;;52.55;28.67;;;;;;;7.13;100.00;98689.47;1678440;84;21033;-36
2022/04/21 05:56:31;;;;;;;62.38;33.00;;;;;;;7.19;98.97;98686.09;1678619;85;21000;-38
2022/04/21 05:58:56;;;;;;;53.35;31.33;;;;;;;7.20;98.83;98689.55;1678464;84;21005;-36
2022/04/21 06:01:23;;;;;;;45.75;26.37;;;;;;;7.27;98.58;98696.99;1678464;84;21057;-38
2022/04/21 06:03:49;;;;;;;52.13;28.27;;;;;;;7.25;98.28;98697.53;1678550;84;20993;-36
2022/04/21 06:06:15;;;;;;;59.38;29.80;;;;;;;7.29;99.15;98690.37;1678541;84;21020;-38
2022/04/21 06:08:41;;;;;;;48.02;27.37;;;;;;;7.32;97.36;98690.23;1678570;85;21530;-39
2022/04/21 06:11:07;;;;;;;49.25;26.55;;;;;;;7.37;97.80;98697.39;1678497;84;21525;-36
2022/04/21 06:13:33;;;;;;;49.20;25.57;;;;;;;7.40;96.96;98687.21;1678492;84;21045;-38
2022/04/21 06:15:59;;;;;;;49.55;28.65;;;;;;;7.38;97.54;98685.14;1678457;84;21033;-39
2022/04/21 06:18:26;;;;;;;43.80;25.57;;;;;;;7.37;97.73;98686.05;1678423;85;21069;-40
2022/04/21 06:20:54;;;;;;;47.25;25.65;;;;;;;7.45;97.82;98689.97;1678675;85;21533;-40
2022/04/21 06:23:21;;;;;;;44.88;25.65;;;;;;;7.47;97.98;98681.58;1678554;85;21459;-39
2022/04/21 06:25:48;;;;;;;44.97;26.60;;;;;;;7.48;98.49;98692.91;1678694;85;21017;-40
2022/04/21 06:28:14;;;;;;;43.75;26.50;;;;;;;7.51;97.38;98686.19;1678491;85;21366;-37
2022/04/21 06:30:40;;;;;;;38.92;22.55;;;;;;;7.49;97.47;98688.91;1678459;85;21016;-37
2022/04/21 06:33:06;;;;;;;51.88;27.85;;;;;;;7.59;97.31;98689.26;1678481;85;21017;-36
2022/04/21 06:35:33;;;;;;;44.08;25.48;;;;;;;7.56;97.45;98686.79;1678472;85;21020;-37
2022/04/21 06:37:59;;;;;;;41.93;23.43;;;;;;;7.45;98.21;98689.13;1678902;84;21048;-39
2022/04/21 06:40:25;;;;;;;41.70;23.98;;;;;;;7.45;98.51;98688.66;1678439;84;21083;-38
2022/04/21 06:42:51;;;;;;;50.00;24.55;;;;;;;7.53;98.73;98686.98;1672790;85;21045;-37
2022/04/21 06:48:04;;;;;;;43.38;26.70;;;;;;;7.49;98.92;98691.96;1661308;85;21030;-39
2022/04/21 06:50:33;;;;;;;46.18;27.60;;;;;;;7.58;98.79;98690.64;1661289;86;21026;-42
2022/04/21 06:53:08;;;;;;;48.50;25.75;;;;;;;7.65;98.82;98688.92;1660438;85;21022;-37
2022/04/21 06:55:34;;;;;;;56.30;30.40;;;;;;;7.77;98.25;98681.37;1661274;86;21058;-38
2022/04/21 06:58:01;;;;;;;38.38;23.18;;;;;;;7.81;98.40;98686.34;1661257;85;21009;-39
2022/04/21 07:00:28;;;;;;;47.60;25.97;;;;;;;7.92;97.53;98681.84;1661492;86;20998;-36
2022/04/21 07:02:57;;;;;;;38.28;23.22;;;;;;;7.92;97.25;98689.69;1661411;86;21018;-37
2022/04/21 07:05:24;;;;;;;35.92;21.77;;;;;;;7.92;97.19;98688.38;1661377;86;21069;-37
2022/04/21 07:07:51;;;;;;;36.03;21.20;;;;;;;7.94;96.81;98688.30;1661403;86;21017;-37
2022/04/21 07:10:18;;;;;;;35.95;20.60;;;;;;;8.02;96.87;98688.72;1661430;85;21017;-38
2022/04/21 07:12:45;;;;;;;32.85;19.50;;;;;;;8.05;96.71;98685.94;1661400;85;21072;-40
2022/04/21 07:15:11;;;;;;;37.58;19.98;;;;;;;8.01;96.83;98691.80;1661361;85;21519;-41
2022/04/21 07:17:39;;;;;;;26.93;18.25;;;;;;;8.02;96.78;98691.34;1661555;86;21037;-40
2022/04/21 07:20:08;;;;;;;36.20;21.55;;;;;;;8.03;96.44;98693.88;1661541;85;21018;-37
2022/04/21 07:22:33;;;;;;;23.87;16.12;;;;;;;8.06;96.44;98686.34;1661400;86;21480;-40
2022/04/21 07:25:03;;;;;;;25.55;16.45;;;;;;;8.07;96.24;98691.46;1661396;86;21050;-39
2022/04/21 07:27:29;;;;;;;28.23;17.50;;;;;;;8.04;96.30;98694.70;1661557;86;20987;-37
2022/04/21 07:29:56;;;;;;;26.60;17.42;;;;;;;8.07;96.27;98699.31;1661483;86;21018;-38
2022/04/21 07:32:22;;;;;;;27.27;17.73;;;;;;;8.05;95.87;98701.17;1661668;85;21029;-39
2022/04/21 07:34:48;;;;;;;27.98;17.00;;;;;;;7.99;96.41;98705.45;1661525;86;21205;-37
2022/04/21 07:37:14;;;;;;;29.07;18.27;;;;;;;8.03;96.24;98705.66;1661375;86;21042;-36
2022/04/21 07:39:40;;;;;;;34.40;18.30;;;;;;;8.01;96.44;98711.45;1661363;85;21071;-36
2022/04/21 07:42:08;;;;;;;26.75;15.28;;;;;;;8.05;96.07;98709.50;1661672;85;21507;-38
2022/04/21 07:44:37;;;;;;;24.98;14.90;;;;;;;8.04;96.30;98707.36;1661441;86;21046;-38
2022/04/21 07:47:05;;;;;;;23.12;15.40;;;;;;;8.10;94.92;98707.48;1661376;86;21022;-40
2022/04/21 07:49:47;;;;;;;22.77;13.48;;;;;;;8.05;95.15;98711.66;1661375;85;21056;-38
2022/04/21 07:55:18;;;;;;;24.02;14.10;;;;;;;7.94;96.25;98706.16;1661401;85;21042;-38
2022/04/21 07:57:46;;;;;;;28.38;15.43;;;;;;;7.97;96.24;98713.02;1661554;86;21483;-38
2022/04/21 08:00:14;;;;;;;;;;;;;;;7.95;96.58;98722.70;1663890;86;20982;-39
2022/04/21 08:02:42;;;;;;;27.62;16.48;;;;;;;7.95;97.08;98723.57;1661331;85;20113;-39
2022/04/21 08:05:10;;;;;;;24.40;14.60;;;;;;;8.03;96.90;98720.06;1661458;86;21087;-37
2022/04/21 08:07:36;;;;;;;;;;;;;;;8.07;96.63;98723.36;1663901;85;21006;-38
2022/04/21 08:10:06;;;;;;;23.90;16.00;;;;;;;8.00;96.59;98721.52;1661390;86;20114;-39
2022/04/21 08:12:49;;;;;;;27.13;16.45;;;;;;;8.04;96.13;98724.38;1661208;85;21009;-37
2022/04/21 08:15:27;;;;;;;27.50;17.10;;;;;;;8.05;96.52;98723.91;1661403;86;21033;-36
2022/04/21 08:17:55;;;;;;;32.78;17.95;;;;;;;8.10;96.58;98715.81;1660070;85;21018;-37
2022/04/21 08:20:23;;;;;;;28.38;17.57;;;;;;;8.11;97.26;98718.33;1661465;85;21057;-38
2022/04/21 08:22:49;;;;;;;31.48;18.02;;;;;;;8.16;97.23;98720.70;1661598;85;21538;-39
2022/04/21 08:33:28;;;;;;;28.47;17.17;;;;;;;8.43;95.96;98719.21;1661608;86;20985;-40
2022/04/21 08:35:58;;;;;;;25.80;16.23;;;;;;;8.55;96.13;98723.38;1661351;85;21479;-39
2022/04/21 08:38:25;;;;;;;26.02;17.80;;;;;;;8.61;95.64;98716.51;1661486;85;21017;-38
2022/04/21 08:40:56;;;;;;;22.52;16.00;;;;;;;8.66;95.44;98724.96;1661521;86;21017;-38
2022/04/21 08:43:25;;;;;;;25.00;15.93;;;;;;;8.69;94.89;98726.08;1661321;86;21523;-39
2022/04/21 08:45:53;;;;;;;25.82;16.75;;;;;;;8.75;94.84;98728.81;1661528;86;21010;-40
2022/04/21 08:48:20;;;;;;;;;;;;;;;8.73;94.80;98724.12;1663857;86;21021;-38
2022/04/21 08:50:46;;;;;;;30.72;18.57;;;;;;;8.69;95.03;98720.83;1661653;86;20114;-38
2022/04/21 08:53:16;;;;;;;22.93;16.48;;;;;;;8.79;94.93;98722.48;1661389;86;21029;-39
2022/04/21 08:55:44;;;;;;;23.92;17.52;;;;;;;8.84;94.78;98723.91;1661399;85;21011;-39
2022/04/21 08:58:14;;;;;;;24.70;17.45;;;;;;;8.90;94.50;98720.09;1661594;85;21387;-41
2022/04/21 09:00:42;;;;;;;29.20;18.23;;;;;;;8.94;94.37;98722.06;1661374;86;21535;-40
2022/04/21 09:03:09;;;;;;;23.77;18.23;;;;;;;8.98;94.21;98720.95;1661355;86;21349;-39
2022/04/21 09:05:35;;;;;;;35.90;18.77;;;;;;;9.03;94.69;98722.84;1661519;85;21026;-40
2022/04/21 09:08:02;;;;;;;23.35;15.98;;;;;;;9.11;94.51;98727.16;1661331;85;21021;-39
2022/04/21 09:10:32;;;;;;;22.87;15.03;;;;;;;9.20;94.40;98728.41;1661599;86;21053;-36
2022/04/21 09:13:01;;;;;;;22.70;14.78;;;;;;;9.23;93.84;98721.20;1661350;85;21201;-38
2022/04/21 09:15:30;;;;;;;17.05;12.82;;;;;;;9.27;93.80;98727.59;1661400;85;21487;-41
2022/04/21 09:18:01;;;;;;;20.72;14.65;;;;;;;9.36;93.53;98727.05;1661316;86;21050;-39
2022/04/21 09:20:35;;;;;;;17.62;13.40;;;;;;;9.35;92.84;98730.59;1660172;85;21492;-40
2022/04/21 09:23:10;;;;;;;17.92;13.18;;;;;;;9.38;92.74;98729.11;1634891;86;21093;-36
2022/04/21 09:25:47;;;;;;;20.77;14.07;;;;;;;9.41;92.88;98731.08;1633342;86;21093;-37
2022/04/21 09:28:23;;;;;;;15.95;12.03;;;;;;;9.41;92.24;98731.56;1653699;85;21054;-37
2022/04/21 09:31:00;;;;;;;17.98;12.18;;;;;;;9.47;92.52;98732.48;1656622;86;21372;-41
2022/04/21 09:33:33;;;;;;;18.07;11.40;;;;;;;9.50;92.27;98728.37;1661410;86;20984;-40
2022/04/21 09:36:06;;;;;;;15.25;10.72;;;;;;;9.61;91.86;98735.14;1659838;86;21031;-40
2022/04/21 09:38:36;;;;;;;18.65;11.48;;;;;;;9.62;91.59;98726.78;1660473;85;21114;-39
2022/04/21 09:41:10;;;;;;;20.02;11.50;;;;;;;9.66;91.82;98730.06;1661427;85;21071;-37
2022/04/21 09:43:37;;;;;;;23.83;11.15;;;;;;;9.68;91.49;98730.81;1661257;86;21019;-39
2022/04/21 09:46:21;;;;;;;17.65;10.10;;;;;;;9.76;91.57;98735.98;1660834;85;21049;-40
2022/04/21 09:48:53;;;;;;;17.62;9.98;;;;;;;9.83;91.07;98729.90;1661043;86;21083;-39
2022/04/21 09:51:28;;;;;;;14.60;9.75;;;;;;;9.94;90.97;98732.70;1660636;86;21023;-41
2022/04/21 09:54:00;;;;;;;12.58;9.25;;;;;;;10.06;90.64;98728.48;1660894;86;21098;-41
2022/04/21 09:56:40;;;;;;;17.85;10.80;;;;;;;10.14;90.39;98725.38;1660485;85;21062;-37
2022/04/21 09:59:10;;;;;;;18.25;10.95;;;;;;;10.23;89.99;98723.48;1660268;86;21556;-40
2022/04/21 10:01:41;;;;;;;15.45;10.30;;;;;;;10.29;89.01;98723.08;1659782;85;21631;-38
2022/04/21 10:04:11;;;;;;;14.18;9.78;;;;;;;10.33;88.83;98723.77;1660143;86;21133;-41
2022/04/21 10:06:39;;;;;;;15.25;10.32;;;;;;;10.34;88.41;98715.79;1660792;86;21062;-39
2022/04/21 10:09:10;;;;;;;12.63;8.80;;;;;;;10.40;88.17;98722.92;1661065;86;21102;-38
2022/04/21 10:11:41;;;;;;;13.43;9.08;;;;;;;10.48;88.31;98722.81;1661274;85;21074;-38
2022/04/21 10:14:12;;;;;;;12.28;9.58;;;;;;;10.46;87.09;98718.57;1661361;86;21107;-36
2022/04/21 10:16:36;;;;;;;15.08;9.53;;;;;;;10.49;87.02;98714.44;1660971;85;21047;-38
2022/04/21 10:19:02;;;;;;;10.38;8.23;;;;;;;10.58;87.64;98712.53;1661010;86;21505;-41
2022/04/21 10:21:59;;;;;;;14.07;8.20;;;;;;;10.67;86.39;98703.21;1660634;85;21074;-41
2022/04/21 10:24:34;;;;;;;11.57;8.85;;;;;;;10.74;85.68;98707.13;1661375;86;21019;-37
2022/04/21 10:27:01;;;;;;;9.73;7.53;;;;;;;10.88;86.00;98707.55;1661532;85;21604;-36
2022/04/21 10:29:27;;;;;;;13.62;9.45;;;;;;;10.95;84.71;98700.91;1661115;86;22258;-38
2022/04/21 10:32:00;;;;;;;22.85;11.15;;;;;;;11.04;84.38;98709.53;1661067;86;21059;-39
2022/04/21 10:34:45;;;;;;;11.15;8.68;;;;;;;11.07;83.53;98702.73;1660833;86;20986;-38
2022/04/21 10:37:19;;;;;;;9.53;8.18;;;;;;;11.12;83.44;98705.07;1666127;85;20999;-40
2022/04/21 10:40:09;;;;;;;13.48;8.15;;;;;;;11.17;82.73;98696.84;1666092;86;21074;-41
2022/04/21 10:43:03;;;;;;;13.45;8.88;;;;;;;11.28;83.48;98707.05;1664956;86;21041;-38
2022/04/21 10:45:31;;;;;;;9.38;7.75;;;;;;;11.39;83.25;98708.95;1682778;84;21071;-38
2022/04/21 10:48:12;;;;;;;14.43;8.25;;;;;;;11.42;81.10;98711.83;1685134;85;21030;-39
2022/04/21 10:50:41;;;;;;;10.75;6.90;;;;;;;11.51;80.80;98713.84;1683887;84;21079;-41
2022/04/21 10:58:47;;;;;;;16.80;8.55;;;;;;;11.55;79.57;98719.73;1685423;85;21541;-38
2022/04/21 11:01:23;;;;;;;9.48;7.75;;;;;;;11.57;79.88;98727.92;1683877;85;21533;-39
2022/04/21 11:04:19;;;;;;;11.20;6.90;;;;;;;11.65;80.21;98723.44;1663215;86;21182;-39
2022/04/21 11:06:54;;;;;;;10.57;6.43;;;;;;;11.61;79.98;98722.80;1684120;85;20999;-39
2022/04/21 11:09:50;;;;;;;10.50;6.90;;;;;;;11.49;78.81;98727.10;1661084;86;21038;-37
2022/04/21 11:12:21;;;;;;;10.23;6.65;;;;;;;11.40;78.39;98728.21;1683005;85;21063;-38
2022/04/21 11:14:47;;;;;;;8.80;6.92;;;;;;;11.36;78.48;98730.20;1657510;86;21027;-38
2022/04/21 11:17:15;;;;;;;7.45;6.10;;;;;;;11.30;78.33;98729.31;1684245;85;21063;-40
2022/04/21 11:19:53;;;;;;;13.88;6.97;;;;;;;11.31;78.90;98729.67;1664335;86;21020;-39
2022/04/21 11:22:40;;;;;;;10.48;7.45;;;;;;;11.26;78.18;98727.36;1684453;85;21040;-41
2022/04/21 11:25:08;;;;;;;12.65;6.45;;;;;;;11.29;78.54;98729.77;1664494;86;21023;-40
2022/04/21 11:27:38;;;;;;;7.15;6.08;;;;;;;11.38;79.08;98732.26;1683005;85;21560;-41
2022/04/21 11:30:09;;;;;;;8.18;6.00;;;;;;;11.40;78.42;98734.31;1662656;86;21043;-40
2022/04/21 11:32:35;;;;;;;9.18;5.62;;;;;;;11.35;77.49;98728.54;1683526;85;21555;-40
2022/04/21 11:35:09;;;;;;;11.45;6.90;;;;;;;11.38;77.25;98724.36;1664404;86;20988;-40
2022/04/21 11:37:54;;;;;;;8.88;6.40;;;;;;;11.40;76.34;98729.05;1684524;85;21501;-40
2022/04/21 11:40:31;;;;;;;8.95;5.35;;;;;;;11.38;75.97;98721.73;1664491;86;21012;-37
2022/04/21 11:43:02;;;;;;;11.23;6.70;;;;;;;11.40;76.20;98724.27;1683578;85;21514;-38
2022/04/21 11:45:35;;;;;;;6.62;5.55;;;;;;;11.43;76.44;98720.95;1652178;86;22266;-40
2022/04/21 11:48:01;;;;;;;6.78;5.53;;;;;;;11.49;76.62;98720.52;1650205;87;21027;-38
2022/04/21 11:50:30;;;;;;;8.08;6.12;;;;;;;11.53;76.68;98720.70;1649636;86;21059;-40
2022/04/21 11:52:57;;;;;;;8.68;5.37;;;;;;;11.56;77.11;98717.00;1649656;86;21051;-36
2022/04/21 11:55:27;;;;;;;9.65;6.33;;;;;;;11.55;76.22;98722.38;1649213;86;21165;-38
2022/04/21 11:57:53;;;;;;;11.45;5.87;;;;;;;11.51;75.88;98717.33;1649369;87;21060;-45
2022/04/21 12:06:28;;;;;;;7.37;5.97;;;;;;;11.45;75.47;98721.69;1649106;86;21508;-38
2022/04/21 12:08:26;;;;;;;10.30;6.10;;;;;;;11.38;75.03;98719.09;1649594;87;21617;-37
2022/04/21 12:10:52;;;;;;;6.65;5.30;;;;;;;11.52;75.84;98715.53;1650089;86;20997;-39
2022/04/21 12:13:19;;;;;;;9.70;5.75;;;;;;;11.60;75.40;98715.00;1649384;86;21599;-39
2022/04/21 12:15:45;;;;;;;11.20;5.85;;;;;;;11.67;75.13;98713.63;1648850;87;21552;-38
2022/04/21 12:18:10;;;;;;;9.58;6.00;;;;;;;11.81;75.32;98714.01;1648727;86;21087;-41
2022/04/21 12:20:53;;;;;;;12.30;6.25;;;;;;;11.98;75.83;98712.84;1648599;86;21548;-38
2022/04/21 12:23:25;;;;;;;14.23;6.30;;;;;;;11.96;75.22;98709.48;1649287;86;21040;-36
2022/04/21 12:25:52;;;;;;;10.50;6.53;;;;;;;12.00;74.70;98706.99;1649166;86;21004;-39